Terminal Aerodrome Forecast
Issued by NWS Charleston, SC

Home | Current Version | Previous Version | Text Only | Print | Product List | Glossary On
Versions: 1 2 3 4 5 6 7 8 9 10 11 12 13 14 15 16
689
FTUS42 KCHS 232332
TAFSAV
TAF
KSAV 232332Z 2400/2424 13006KT P6SM SCT060 BKN150
     FM240300 19003KT P6SM SCT250
     FM241700 16007KT P6SM SCT040=

USA.gov is the U.S. government's official web portal to all federal, state and local government web resources and services.